Flight Track Log - Related Links

Times and Time Zones

All times are in EDT time to prevent confusion due to time zone crossing. See the DAL268 flight status page for this flight to view local times or setup timezone preferences in your user account.

Time Position Orientation Groundspeed Altitude Reporting Facility
EDT Latitude Longitude Course Direction KTS MPH feet Rate Location/Type
Sat 02:30:55 PM 37.6090 -122.3840 188° South 28 32  Level FlightAware ADS-B
Sat 02:31:12 PM 37.6080 -122.3850 218° Southwest 22 25 62 Level FlightAware ADS-B
Sat 02:33:00 PM 37.7119 -122.5856 113° Southeast  Level FlightAware Approximate
Sat 02:34:00 PM 37.6475 -122.4526 119° Southeast  Level FlightAware Approximate
Sat 02:34:12 PM 37.6070 -122.3840 119° Southeast 20 23  Level FlightAware ADS-B
Sat 02:34:24 PM 37.6060 -122.3830 142° Southeast 15 17 194 Level FlightAware ADS-B
Sat 02:35:06 PM 37.6070 -122.3810 58° Northeast 34 39 222 Level FlightAware ADS-B
Sat 02:35:21 PM 37.6100 -122.3780 38° Northeast 90 104 462 Level FlightAware ADS-B
Sat 02:35:45 PM 37.6250 -122.3690 25° Northeast 170 196 300 1,636 Climbing FlightAware ADS-B
Sat 02:36:05 PM 37.6389 -122.3590 30° Northeast 179 206 1,200 2,609 Climbing FlightAware ADS-B
Sat 02:36:08 PM 37.6410 -122.3570 37° Northeast 182 209 1,300 1,714 Climbing FlightAware ADS-B
Sat 02:36:12 PM 37.6438 -122.3540 40° Northeast 184 212 1,400 1,667 Climbing FlightAware ADS-B
Sat 02:36:26 PM 37.6524 -122.3420 48° Northeast 204 235 1,800 1,600 Climbing FlightAware ADS-B
Sat 02:36:42 PM 37.6631 -122.3280 46° Northeast 220 253 2,200 1,688 Climbing FlightAware ADS-B
Sat 02:36:58 PM 37.6753 -122.3130 44° Northeast 243 280 2,700 1,742 Climbing FlightAware ADS-B
Sat 02:37:13 PM 37.6876 -122.2970 46° Northeast 260 299 3,100 2,200 Climbing FlightAware ADS-B
Sat 02:37:28 PM 37.7005 -122.2800 46° Northeast 267 307 3,800 3,091 Climbing FlightAware ADS-B
Sat 02:37:46 PM 37.7167 -122.2600 44° Northeast 270 311 4,800 3,091 Climbing FlightAware ADS-B
Sat 02:38:01 PM 37.7311 -122.2450 39° Northeast 274 315 5,500 2,842 Climbing FlightAware ADS-B
Sat 02:38:24 PM 37.7544 -122.2230 37° Northeast 278 320 6,600 3,077 Climbing FlightAware ADS-B
Sat 02:38:40 PM 37.7719 -122.2060 38° Northeast 279 321 7,500 3,188 Climbing FlightAware ADS-B
Sat 02:38:56 PM 37.7876 -122.1920 35° Northeast 281 323 8,300 3,000 Climbing FlightAware ADS-B
Sat 02:39:12 PM 37.8052 -122.1750 37° Northeast 284 327 9,100 2,813 Climbing FlightAware ADS-B
Sat 02:39:28 PM 37.8209 -122.1590 39° Northeast 287 330 9,800 2,000 Climbing FlightAware ADS-B
Sat 02:40:00 PM 37.8559 -122.1250 37° Northeast 315 362 10,700 1,548 Climbing FlightAware ADS-B
Sat 02:40:30 PM 37.8937 -122.0890 37° Northeast 348 400 11,400 1,180 Climbing FlightAware ADS-B
Sat 02:41:01 PM 37.9343 -122.0500 37° Northeast 378 435 11,900 1,672 Climbing FlightAware ADS-B
Sat 02:41:31 PM 37.9771 -122.0070 38° Northeast 389 448 13,100 2,361 Climbing FlightAware ADS-B
Sat 02:42:02 PM 38.0217 -121.9640 37° Northeast 396 456 14,300 2,215 Climbing FlightAware ADS-B
Sat 02:42:36 PM 38.0719 -121.9150 38° Northeast 406 467 15,500 2,143 Climbing FlightAware ADS-B
Sat 02:43:26 PM 38.1460 -121.8430 37° Northeast 417 480 17,300 2,125 Climbing FlightAware ADS-B
Sat 02:44:12 PM 38.2180 -121.7730 37° Northeast 425 489 18,900 2,000 Climbing FlightAware ADS-B
Sat 02:44:56 PM 38.2880 -121.7050 37° Northeast 437 503 20,300 1,655 Climbing FlightAware ADS-B
Sat 02:46:08 PM 38.3860 -121.6090 38° Northeast 449 517 22,100 1,678 Climbing FlightAware ADS-B
Sat 02:46:54 PM 38.4730 -121.5020 44° Northeast 460 529 23,600 1,724 Climbing FlightAware ADS-B
Sat 02:47:35 PM 38.5260 -121.4120 53° Northeast 469 540 24,600 1,463 Climbing FlightAware ADS-B
Sat 02:48:16 PM 38.5797 -121.3190 54° Northeast 471 542 25,600 1,437 Climbing FlightAware ADS-B
Sat 02:48:46 PM 38.6193 -121.2500 54° Northeast 482 555 26,300 1,313 Climbing FlightAware ADS-B
Sat 02:49:20 PM 38.6640 -121.1730 53° Northeast 486 559 27,000 1,200 Climbing FlightAware ADS-B
Sat 02:49:56 PM 38.7129 -121.0880 54° Northeast 490 564 27,700 1,169 Climbing FlightAware ADS-B
Sat 02:50:37 PM 38.7697 -120.9900 53° Northeast 497 572 28,500 1,351 Climbing FlightAware ADS-B
Sat 02:51:47 PM 38.8640 -120.8270 53° Northeast 500 575 30,200 1,446 Climbing FlightAware ADS-B
Sat 02:52:29 PM 38.9230 -120.7250 53° Northeast 499 574 31,200 1,395 Climbing FlightAware ADS-B
Sat 02:53:13 PM 38.9840 -120.6190 53° Northeast 496 571 32,200 1,463 Climbing FlightAware ADS-B
Sat 02:53:51 PM 39.0350 -120.5300 54° Northeast 493 567 33,200 1,390 Climbing FlightAware ADS-B
Sat 02:54:35 PM 39.0940 -120.4280 53° Northeast 491 565 34,100 1,116 Climbing FlightAware ADS-B
Sat 02:55:17 PM 39.1500 -120.3310 53° Northeast 491 565 34,800 563 Climbing FlightAware ADS-B
Sat 02:56:11 PM 39.2220 -120.2040 54° Northeast 494 568 35,000 120 Climbing FlightAware ADS-B
Sat 02:56:57 PM 39.2830 -120.0970 54° Northeast 493 567 35,000 488 Level FlightAware ADS-B
Sat 02:57:37 PM 39.3330 -119.9960 57° Northeast 484 557 35,700 1,024 Climbing FlightAware ADS-B
Sat 02:58:19 PM 39.3700 -119.9090 61° Northeast 486 559 36,400 878 Climbing FlightAware ADS-B
Sat 02:58:59 PM 39.4150 -119.8040 61° Northeast 487 560 36,900 450 Climbing FlightAware ADS-B
Sat 02:59:39 PM 39.4550 -119.7150 60° Northeast 488 562 37,000 74 Climbing FlightAware ADS-B
Sat 03:00:20 PM 39.5040 -119.6050 60° Northeast 485 558 37,000  Level FlightAware ADS-B
Sat 03:01:08 PM 39.5350 -119.5340 60° Northeast 486 559 37,000  Level FlightAware ADS-B
Sat 03:02:06 PM 39.6130 -119.3490 61° Northeast 486 559 37,000  Level FlightAware ADS-B
Sat 03:02:42 PM 39.6460 -119.2710 61° Northeast 486 559 37,000  Level FlightAware ADS-B
Sat 03:03:30 PM 39.6910 -119.1670 61° Northeast 486 559 37,000  Level FlightAware ADS-B
Sat 03:04:06 PM 39.7240 -119.0880 61° Northeast 486 559 37,000  Level FlightAware ADS-B
Sat 03:04:51 PM 39.8020 -118.8950 62° Northeast 488 562 37,000  Level FlightAware ADS-B
Sat 03:05:55 PM 39.8180 -118.8570 61° Northeast 488 562 37,000  Level FlightAware ADS-B
Sat 03:07:00 PM 39.8760 -118.7140 62° Northeast 488 562 37,000  Level FlightAware ADS-B
Sat 03:07:36 PM 39.9090 -118.6340 62° Northeast 488 562 37,000  Level FlightAware ADS-B
Sat 03:08:25 PM 39.9530 -118.5260 62° Northeast 488 562 37,000  Level FlightAware ADS-B
Sat 03:08:59 PM 39.9840 -118.4510 62° Northeast 488 562 37,000  Level FlightAware ADS-B
Sat 03:09:46 PM 40.0260 -118.3470 62° Northeast 488 562 37,000  Level FlightAware ADS-B
Sat 03:10:22 PM 40.0580 -118.2670 62° Northeast 488 562 37,000  Level FlightAware ADS-B
Sat 03:11:48 PM 40.1360 -118.0770 62° Northeast 488 562 37,000  Level FlightAware ADS-B
Sat 03:12:23 PM 40.1670 -117.9990 63° Northeast 488 562 37,000  Level FlightAware ADS-B
Sat 03:13:09 PM 40.2090 -117.8970 62° Northeast 488 562 37,000  Level FlightAware ADS-B
Sat 03:13:45 PM 40.2410 -117.8170 62° Northeast 488 562 37,000  Level FlightAware ADS-B
Sat 03:14:33 PM 40.2840 -117.7110 62° Northeast 488 562 37,000  Level FlightAware ADS-B
Sat 03:15:19 PM 40.3260 -117.6080 62° Northeast 488 562 37,000  Level FlightAware ADS-B
Sat 03:15:54 PM 40.3570 -117.5310 62° Northeast 488 562 37,000  Level FlightAware ADS-B
Sat 03:16:18 PM 40.5142 -117.1292 62° Northeast 486 559 37,000  Level Salt Lake Center
Sat 03:17:20 PM 40.5842 -116.9478 63° Northeast 488 562 37,000  Level Salt Lake Center
Sat 03:18:22 PM 40.6442 -116.7939 63° Northeast 487 560 37,000  Level Salt Lake Center
Sat 03:19:24 PM 40.7033 -116.6406 63° Northeast 486 559 37,000  Level Salt Lake Center
Sat 03:20:26 PM 40.7700 -116.4614 64° Northeast 488 562 37,000 48 Level Salt Lake Center
Sat 03:21:28 PM 40.8283 -116.3075 63° Northeast 488 562 37,100  Climbing Salt Lake Center
Sat 03:22:30 PM 40.8972 -116.1303 63° Northeast 487 560 37,000 -48 Descending Salt Lake Center
Sat 03:23:32 PM 40.9547 -115.9781 63° Northeast 485 558 37,000  Level Salt Lake Center
Sat 03:24:33 PM 41.0206 -115.8006 64° Northeast 481 554 37,000  Level Salt Lake Center
Sat 03:25:35 PM 41.0775 -115.6478 64° Northeast 483 556 37,000  Level Salt Lake Center
Sat 03:26:37 PM 41.1342 -115.4950 64° Northeast 482 555 37,000  Level Salt Lake Center
Sat 03:27:39 PM 41.1997 -115.3172 64° Northeast 481 554 37,000  Level Salt Lake Center
Sat 03:28:41 PM 41.2550 -115.1642 64° Northeast 480 552 37,000  Level Salt Lake Center
Sat 03:29:43 PM 41.3189 -114.9867 64° Northeast 477 549 37,000  Level Salt Lake Center
Sat 03:30:44 PM 41.3750 -114.8314 64° Northeast 477 549 37,000  Level Salt Lake Center
Sat 03:31:46 PM 41.4333 -114.6708 64° Northeast 481 554 37,000  Level Salt Lake Center
Sat 03:32:48 PM 41.4908 -114.5114 64° Northeast 480 552 37,000  Level Salt Lake Center
Sat 03:38:57 PM 41.8070 -113.4660 64° Northeast 490 564 37,000  Level FlightAware ADS-B
Sat 03:39:37 PM 41.8390 -113.3470 70° East 494 568 37,000  Level FlightAware ADS-B
Sat 03:40:12 PM 41.8640 -113.2540 70° East 494 568 37,000  Level FlightAware ADS-B
Sat 03:40:55 PM 41.8920 -113.1490 70° East 494 568 37,000  Level FlightAware ADS-B
Sat 03:41:43 PM 41.9240 -113.0310 70° East 494 568 37,000  Level FlightAware ADS-B
Sat 03:42:20 PM 41.9490 -112.9400 70° East 494 568 37,000  Level FlightAware ADS-B
Sat 03:43:24 PM 41.9910 -112.7830 70° East 494 568 37,000  Level FlightAware ADS-B
Sat 03:43:59 PM 42.0150 -112.6970 69° East 494 568 37,000  Level FlightAware ADS-B
Sat 03:44:48 PM 42.0470 -112.5770 70° East 494 568 37,000  Level FlightAware ADS-B
Sat 03:45:10 PM 42.0861 -112.3889 70° East 507 583 37,000  Level Salt Lake Center
Sat 03:46:12 PM 42.1308 -112.2083 71° East 508 585 37,000  Level Salt Lake Center
Sat 03:47:14 PM 42.1761 -112.0278 71° East 508 585 37,000  Level Salt Lake Center
Sat 03:48:16 PM 42.2200 -111.8456 72° East 510 587 37,000  Level Salt Lake Center
Sat 03:49:18 PM 42.2731 -111.6264 72° East 512 589 37,000  Level Salt Lake Center
Sat 03:50:19 PM 42.3178 -111.4442 72° East 512 589 37,000  Level Salt Lake Center
Sat 03:51:21 PM 42.3606 -111.2617 72° East 511 588 37,000  Level Salt Lake Center
Sat 03:52:23 PM 42.4042 -111.0783 72° East 511 588 37,000  Level Salt Lake Center
Sat 03:53:25 PM 42.4508 -110.8817 72° East 510 587 37,000  Level Salt Lake Center
Sat 03:54:27 PM 42.4917 -110.7061 72° East 510 587 37,000  Level Salt Lake Center
Sat 03:55:28 PM 42.5392 -110.5008 73° East 510 587 37,000  Level Salt Lake Center
Sat 03:56:30 PM 42.5792 -110.3228 73° East 513 590 37,000  Level Salt Lake Center
Sat 03:57:32 PM 42.6261 -110.1167 73° East 512 589 37,000  Level Salt Lake Center
Sat 03:58:34 PM 42.6667 -109.9397 73° East 512 589 37,000  Level Salt Lake Center
Sat 03:59:36 PM 42.7067 -109.7611 73° East 514 592 37,000  Level Salt Lake Center
Sat 04:00:37 PM 42.7533 -109.5497 73° East 519 597 37,000  Level Salt Lake Center
Sat 04:01:39 PM 42.7933 -109.3686 73° East 521 600 37,000  Level Salt Lake Center
Sat 04:02:41 PM 42.8392 -109.1589 73° East 518 596 37,000  Level Salt Lake Center
Sat 04:03:43 PM 42.8772 -108.9833 73° East 510 587 37,000  Level Salt Lake Center
Sat 04:04:44 PM 42.9217 -108.7703 74° East 520 598 37,000  Level Salt Lake Center
Sat 04:05:46 PM 42.9603 -108.5897 74° East 519 597 37,000  Level Salt Lake Center
Sat 04:06:48 PM 43.0019 -108.3828 75° East 515 593 37,000  Level Salt Lake Center
Sat 04:07:50 PM 43.0394 -108.2008 74° East 518 596 37,000  Level Salt Lake Center
Sat 04:08:51 PM 43.0767 -108.0197 74° East 518 596 37,000  Level Salt Lake Center
Sat 04:09:53 PM 43.1183 -107.8078 75° East 517 595 37,000  Level Salt Lake Center
Sat 04:10:55 PM 43.1556 -107.6306 74° East 512 589 37,000  Level Salt Lake Center
Sat 04:11:56 PM 43.1975 -107.4192 75° East 515 593 37,000  Level Salt Lake Center
Sat 04:12:58 PM 43.2336 -107.2372 75° East 518 596 37,000  Level Salt Lake Center
Sat 04:13:59 PM 43.2753 -107.0247 75° East 518 596 37,000  Level Salt Lake Center
Sat 04:15:01 PM 43.3114 -106.8386 75° East 516 594 37,000  Level Salt Lake Center
Sat 04:15:39 PM 43.3358 -106.7142 75° East 520 598 37,000  Level Denver Center
Sat 04:16:41 PM 43.3703 -106.5303 75° East 518 596 37,000  Level Denver Center
Sat 04:17:43 PM 43.4108 -106.3153 75° East 521 600 37,000  Level Denver Center
Sat 04:18:44 PM 43.4444 -106.1306 76° East 518 596 37,000  Level Denver Center
Sat 04:19:46 PM 43.4853 -105.9147 75° East 519 597 37,000  Level Denver Center
Sat 04:20:48 PM 43.5192 -105.7272 76° East 523 602 37,000  Level Denver Center
Sat 04:21:49 PM 43.5539 -105.5394 76° East 526 605 37,000  Level Denver Center
Sat 04:23:03 PM 43.5928 -105.3211 76° East 525 604 37,000  Level Denver Center
Sat 04:24:05 PM 43.6328 -105.1011 76° East 526 605 37,000  Level Denver Center
Sat 04:25:06 PM 43.6694 -104.8808 77° East 526 605 37,000  Level Denver Center
Sat 04:26:08 PM 43.7025 -104.6906 76° East 529 609 37,000  Level Denver Center
Sat 04:27:10 PM 43.7397 -104.4717 77° East 525 604 37,000  Level Denver Center
Sat 04:28:11 PM 43.7719 -104.2822 77° East 526 605 37,000  Level Denver Center
Sat 04:29:13 PM 43.8025 -104.0958 77° East 522 601 37,000  Level Denver Center
Sat 04:30:14 PM 43.8389 -103.8736 77° East 527 606 37,000  Level Denver Center
Sat 04:31:16 PM 43.8692 -103.6844 77° East 526 605 37,000  Level Denver Center
Sat 04:32:18 PM 43.9053 -103.4611 77° East 529 609 37,000  Level Denver Center
Sat 04:33:19 PM 43.9375 -103.2744 76° East 523 602 37,000  Level Denver Center
Sat 04:34:21 PM 43.9678 -103.0847 77° East 523 602 37,000  Level Denver Center
Sat 04:35:22 PM 44.0072 -102.8631 76° East 528 608 37,000  Level Denver Center
Sat 04:36:24 PM 44.0408 -102.6861 75° East 526 605 37,000  Level Denver Center
Sat 04:37:26 PM 44.0856 -102.4494 75° East 527 606 37,000  Level Denver Center
Sat 04:38:27 PM 44.1247 -102.2528 74° East 530 610 37,000  Level Denver Center
Sat 04:39:29 PM 44.1606 -102.0531 76° East 532 612 37,000  Level Denver Center
Sat 04:40:31 PM 44.1978 -101.8533 75° East 534 615 37,000  Level Denver Center
Sat 04:41:32 PM 44.2342 -101.6522 76° East 536 617 37,000  Level Denver Center
Sat 04:42:34 PM 44.2706 -101.4503 76° East 537 618 37,000  Level Denver Center
Sat 04:43:09 PM 44.2947 -101.3322 74° East 536 617 37,000  Level Minneapolis Center
Sat 04:44:23 PM 44.3142 -101.1286 82° East 533 613 37,000  Level Minneapolis Center
Sat 04:44:49 PM 44.3086 -101.0031 93° East 527 606 37,000  Level Denver Center
Sat 04:45:25 PM 44.3075 -100.8825 91° East 530 610 37,000  Level Minneapolis Center
Sat 04:46:27 PM 44.3033 -100.6372 91° East 530 610 37,000  Level Minneapolis Center
Sat 04:47:29 PM 44.2983 -100.4319 92° East 531 611 37,000  Level Minneapolis Center
Sat 04:48:31 PM 44.2942 -100.2269 92° East 532 612 37,000  Level Minneapolis Center
Sat 04:49:32 PM 44.2878 -100.0222 92° East 532 612 37,000  Level Minneapolis Center
Sat 04:50:34 PM 44.2819 -99.8186 92° East 532 612 37,000  Level Minneapolis Center
Sat 04:51:36 PM 44.2747 -99.5736 92° East 531 611 37,000  Level Minneapolis Center
Sat 04:52:38 PM 44.2675 -99.3714 93° East 527 606 37,000  Level Minneapolis Center
Sat 04:57:38 PM 44.2290 -98.3460 93° East 521 600 37,000  Level FlightAware ADS-B
Sat 04:58:18 PM 44.2230 -98.2150 94° East 520 598 37,000  Level FlightAware ADS-B
Sat 04:59:00 PM 44.2170 -98.0790 93° East 520 598 37,000  Level FlightAware ADS-B
Sat 04:59:44 PM 44.2100 -97.9250 94° East 519 597 37,000  Level FlightAware ADS-B
Sat 05:00:22 PM 44.2040 -97.8010 94° East 519 597 37,000  Level FlightAware ADS-B
Sat 05:01:04 PM 44.1980 -97.6630 93° East 520 598 37,000  Level FlightAware ADS-B
Sat 05:01:48 PM 44.1900 -97.5170 94° East 520 598 37,000  Level FlightAware ADS-B
Sat 05:02:32 PM 44.1830 -97.3670 94° East 520 598 37,000  Level FlightAware ADS-B
Sat 05:03:10 PM 44.1760 -97.2440 94° East 519 597 37,000  Level FlightAware ADS-B
Sat 05:03:56 PM 44.1680 -97.0910 94° East 519 597 37,000  Level FlightAware ADS-B
Sat 05:04:52 PM 44.1590 -96.9010 94° East 520 598 37,000  Level FlightAware ADS-B
Sat 05:05:32 PM 44.1520 -96.7710 94° East 520 598 37,000  Level FlightAware ADS-B
Sat 05:06:14 PM 44.1440 -96.6260 94° East 519 597 37,000  Level FlightAware ADS-B
Sat 05:06:50 PM 44.1370 -96.5070 95° East 519 597 37,000  Level FlightAware ADS-B
Sat 05:07:32 PM 44.1290 -96.3690 95° East 518 596 37,000  Level FlightAware ADS-B
Sat 05:08:18 PM 44.1200 -96.2180 95° East 518 596 37,000  Level FlightAware ADS-B
Sat 05:09:04 PM 44.1110 -96.0660 95° East 517 595 37,000  Level FlightAware ADS-B
Sat 05:09:40 PM 44.1040 -95.9440 95° East 516 594 37,000  Level FlightAware ADS-B
Sat 05:10:28 PM 44.0940 -95.7850 95° East 514 592 37,000  Level FlightAware ADS-B
Sat 05:11:06 PM 44.0860 -95.6620 95° East 515 593 37,000  Level FlightAware ADS-B
Sat 05:11:52 PM 44.0760 -95.5100 95° East 516 594 37,000  Level FlightAware ADS-B
Sat 05:12:32 PM 44.0670 -95.3790 95° East 516 594 37,000 214 Level FlightAware ADS-B
Sat 05:13:16 PM 44.0580 -95.2360 95° East 517 595 37,300 643 Climbing FlightAware ADS-B
Sat 05:13:56 PM 44.0500 -95.1230 96° East 515 593 37,900 512 Climbing FlightAware ADS-B
Sat 05:14:38 PM 44.0390 -94.9650 95° East 511 588 38,000 279 Climbing FlightAware ADS-B
Sat 05:15:22 PM 44.0290 -94.8200 95° East 510 587 38,300 558 Climbing FlightAware ADS-B
Sat 05:16:04 PM 44.0190 -94.6860 96° East 512 589 38,800 525 Climbing FlightAware ADS-B
Sat 05:16:42 PM 44.0100 -94.5590 96° East 515 593 39,000 143 Climbing FlightAware ADS-B
Sat 05:17:28 PM 43.9990 -94.4110 96° East 516 594 39,000  Level FlightAware ADS-B
Sat 05:18:10 PM 43.9880 -94.2730 96° East 512 589 39,000  Level FlightAware ADS-B
Sat 05:18:50 PM 43.9780 -94.1430 96° East 512 589 39,000  Level FlightAware ADS-B
Sat 05:19:32 PM 43.9670 -94.0050 96° East 511 588 39,000  Level FlightAware ADS-B
Sat 05:20:14 PM 43.9560 -93.8690 96° East 511 588 39,000  Level FlightAware ADS-B
Sat 05:20:58 PM 43.9450 -93.7250 96° East 512 589 39,000  Level FlightAware ADS-B
Sat 05:21:36 PM 43.9350 -93.6010 96° East 511 588 39,000  Level FlightAware ADS-B
Sat 05:22:20 PM 43.9230 -93.4580 97° East 511 588 39,000  Level FlightAware ADS-B
Sat 05:23:04 PM 43.9110 -93.3170 97° East 511 588 39,000  Level FlightAware ADS-B
Sat 05:23:44 PM 43.8990 -93.1840 97° East 512 589 39,000  Level FlightAware ADS-B
Sat 05:24:28 PM 43.8870 -93.0410 97° East 514 592 39,000  Level FlightAware ADS-B
Sat 05:25:09 PM 43.8750 -92.9110 97° East 514 592 39,000  Level FlightAware ADS-B
Sat 05:25:49 PM 43.8640 -92.7780 96° East 516 594 39,000  Level FlightAware ADS-B
Sat 05:26:32 PM 43.8510 -92.6360 97° East 518 596 39,000  Level FlightAware ADS-B
Sat 05:27:10 PM 43.8390 -92.5100 97° East 520 598 39,000  Level FlightAware ADS-B
Sat 05:27:58 PM 43.8250 -92.3530 97° East 521 600 39,000  Level FlightAware ADS-B
Sat 05:28:38 PM 43.8120 -92.2210 98° East 523 602 39,000  Level FlightAware ADS-B
Sat 05:29:22 PM 43.7980 -92.0740 97° East 525 604 39,000  Level FlightAware ADS-B
Sat 05:30:02 PM 43.7850 -91.9410 98° East 526 605 39,000  Level FlightAware ADS-B
Sat 05:30:46 PM 43.7710 -91.7960 98° East 523 602 39,000  Level FlightAware ADS-B
Sat 05:31:28 PM 43.7570 -91.6570 98° East 521 600 39,000  Level FlightAware ADS-B
Sat 05:32:08 PM 43.7440 -91.5260 98° East 521 600 39,000  Level FlightAware ADS-B
Sat 05:32:50 PM 43.7300 -91.3870 98° East 520 598 39,000  Level FlightAware ADS-B
Sat 05:33:32 PM 43.7150 -91.2490 99° East 519 597 39,000  Level FlightAware ADS-B
Sat 05:34:16 PM 43.7000 -91.1030 98° East 519 597 39,000  Level FlightAware ADS-B
Sat 05:34:56 PM 43.6860 -90.9740 98° East 519 597 39,000  Level FlightAware ADS-B
Sat 05:36:06 PM 43.6620 -90.7470 98° East 518 596 39,000  Level FlightAware ADS-B
Sat 05:36:48 PM 43.6470 -90.6100 99° East 516 594 39,000 -571 Level FlightAware ADS-B
Sat 05:37:30 PM 43.6320 -90.4730 99° East 519 597 38,200 -1,256 Descending FlightAware ADS-B
Sat 05:38:14 PM 43.6150 -90.3270 99° East 522 601 37,200 -878 Descending FlightAware ADS-B
Sat 05:38:52 PM 43.6010 -90.2010 99° East 520 598 37,000 -146 Descending FlightAware ADS-B
Sat 05:39:36 PM 43.5850 -90.0580 99° East 521 600 37,000  Level FlightAware ADS-B
Sat 05:40:16 PM 43.5700 -89.9280 99° East 520 598 37,000  Level FlightAware ADS-B
Sat 05:41:12 PM 43.5470 -89.7450 100° East 519 597 37,000  Level FlightAware ADS-B
Sat 05:41:52 PM 43.5290 -89.6160 101° East 520 598 37,000  Level FlightAware ADS-B
Sat 05:42:48 PM 43.5050 -89.4330 100° East 521 600 37,000  Level FlightAware ADS-B
Sat 05:43:32 PM 43.4850 -89.2920 101° East 522 601 37,000  Level FlightAware ADS-B
Sat 05:44:12 PM 43.4670 -89.1600 101° East 523 602 37,000  Level FlightAware ADS-B
Sat 05:44:55 PM 43.4480 -89.0190 100° East 522 601 37,000  Level FlightAware ADS-B
Sat 05:45:49 PM 43.4310 -88.8990 101° East 522 601 37,000  Level FlightAware ADS-B
Sat 05:46:26 PM 43.4130 -88.7720 101° East 521 600 37,000  Level FlightAware ADS-B
Sat 05:47:11 PM 43.3860 -88.5770 101° East 518 596 37,000  Level FlightAware ADS-B
Sat 05:47:54 PM 43.3660 -88.4400 101° East 515 593 37,000  Level FlightAware ADS-B
Sat 05:48:40 PM 43.3450 -88.2960 101° East 513 590 37,000  Level FlightAware ADS-B
Sat 05:49:22 PM 43.3260 -88.1670 101° East 512 589 37,000  Level FlightAware ADS-B
Sat 05:50:02 PM 43.3070 -88.0360 101° East 508 585 37,000  Level FlightAware ADS-B
Sat 05:50:44 PM 43.2870 -87.9010 101° East 508 585 37,000  Level FlightAware ADS-B
Sat 05:51:26 PM 43.2670 -87.7670 102° East 507 583 37,000  Level FlightAware ADS-B
Sat 05:52:10 PM 43.2460 -87.6310 102° East 506 582 37,000  Level FlightAware ADS-B
Sat 05:52:48 PM 43.2280 -87.5130 102° East 505 581 37,000  Level FlightAware ADS-B
Sat 05:53:34 PM 43.2060 -87.3720 102° East 504 580 37,000  Level FlightAware ADS-B
Sat 05:54:14 PM 43.1860 -87.2440 102° East 503 579 37,000  Level FlightAware ADS-B
Sat 05:54:55 PM 43.1660 -87.1170 102° East 503 579 37,000  Level FlightAware ADS-B
Sat 05:55:32 PM 43.1500 -87.0120 102° East 503 579 37,000  Level FlightAware ADS-B
Sat 05:56:20 PM 43.1250 -86.8570 102° East 502 578 37,000  Level FlightAware ADS-B
Sat 05:57:14 PM 43.0980 -86.6850 102° East 501 577 37,000  Level FlightAware ADS-B
Sat 05:58:01 PM 43.0750 -86.5420 102° East 501 577 37,000  Level FlightAware ADS-B
Sat 05:58:42 PM 43.0530 -86.4120 103° East 501 577 37,000  Level FlightAware ADS-B
Sat 05:59:21 PM 43.0340 -86.2950 102° East 502 578 37,000  Level FlightAware ADS-B
Sat 06:00:06 PM 43.0110 -86.1550 103° East 503 579 37,000  Level FlightAware ADS-B
Sat 06:00:44 PM 42.9910 -86.0350 103° East 504 580 37,000  Level FlightAware ADS-B
Sat 06:01:40 PM 42.9620 -85.8640 103° East 506 582 37,000  Level FlightAware ADS-B
Sat 06:02:22 PM 42.9400 -85.7320 103° East 507 583 37,000  Level FlightAware ADS-B
Sat 06:03:01 PM 42.9190 -85.6110 103° East 508 585 37,000  Level FlightAware ADS-B
Sat 06:03:45 PM 42.8950 -85.4730 103° East 509 586 37,000  Level FlightAware ADS-B
Sat 06:04:26 PM 42.8740 -85.3510 103° East 510 587 37,000  Level FlightAware ADS-B
Sat 06:05:10 PM 42.8490 -85.2100 104° East 512 589 37,000 506 Level FlightAware ADS-B
Sat 06:05:49 PM 42.8270 -85.0860 104° East 505 581 37,700 1,143 Climbing FlightAware ADS-B
Sat 06:06:34 PM 42.8030 -84.9500 103° East 503 579 38,600 918 Climbing FlightAware ADS-B
Sat 06:07:14 PM 42.7820 -84.8310 103° East 506 582 39,000 304 Climbing FlightAware ADS-B
Sat 06:07:53 PM 42.7600 -84.7100 104° East 507 583 39,000  Level FlightAware ADS-B
Sat 06:08:37 PM 42.7360 -84.5770 104° East 511 588 39,000  Level FlightAware ADS-B
Sat 06:09:22 PM 42.7100 -84.4330 104° East 514 592 39,000  Level FlightAware ADS-B
Sat 06:09:56 PM 42.6890 -84.3200 104° East 516 594 39,000  Level FlightAware ADS-B
Sat 06:10:47 PM 42.6600 -84.1620 104° East 519 597 39,000  Level FlightAware ADS-B
Sat 06:11:22 PM 42.6410 -84.0580 104° East 520 598 39,000  Level FlightAware ADS-B
Sat 06:12:08 PM 42.6150 -83.9210 104° East 522 601 39,000  Level FlightAware ADS-B
Sat 06:12:51 PM 42.5880 -83.7790 104° East 521 600 39,000  Level FlightAware ADS-B
Sat 06:13:33 PM 42.5620 -83.6400 104° East 520 598 39,000  Level FlightAware ADS-B
Sat 06:14:17 PM 42.5350 -83.5000 105° East 517 595 39,000  Level FlightAware ADS-B
Sat 06:14:57 PM 42.5110 -83.3750 105° East 516 594 39,000  Level FlightAware ADS-B
Sat 06:15:39 PM 42.4860 -83.2460 105° East 514 592 39,000  Level FlightAware ADS-B
Sat 06:16:19 PM 42.4610 -83.1200 105° East 515 593 39,000  Level FlightAware ADS-B
Sat 06:17:00 PM 42.4360 -82.9930 105° East 514 592 39,000  Level FlightAware ADS-B
Sat 06:17:44 PM 42.4090 -82.8550 105° East 513 590 39,000  Level FlightAware ADS-B
Sat 06:18:28 PM 42.3850 -82.7240 104° East 513 590 39,000  Level FlightAware ADS-B
Sat 06:19:08 PM 42.3740 -82.5940 96° East 515 593 39,000  Level FlightAware ADS-B
Sat 06:19:50 PM 42.3690 -82.4590 93° East 514 592 39,000  Level FlightAware ADS-B
Sat 06:20:34 PM 42.3640 -82.3210 93° East 514 592 39,000  Level FlightAware ADS-B
Sat 06:21:14 PM 42.3590 -82.1900 93° East 513 590 39,000  Level FlightAware ADS-B
Sat 06:21:57 PM 42.3530 -82.0600 94° East 511 588 39,000  Level FlightAware ADS-B
Sat 06:22:39 PM 42.3470 -81.9290 94° East 508 585 39,000  Level FlightAware ADS-B
Sat 06:23:15 PM 42.3420 -81.8130 93° East 504 580 39,000  Level FlightAware ADS-B
Sat 06:23:57 PM 42.3360 -81.6830 94° East 501 577 39,000  Level FlightAware ADS-B
Sat 06:24:44 PM 42.3290 -81.5390 94° East 498 573 39,000  Level FlightAware ADS-B
Sat 06:25:52 PM 42.3200 -81.3490 94° East 492 566 39,000  Level FlightAware ADS-B
Sat 06:26:32 PM 42.3140 -81.2200 94° East 489 563 39,000  Level FlightAware ADS-B
Sat 06:27:18 PM 42.3070 -81.0800 94° East 486 559 39,000  Level FlightAware ADS-B
Sat 06:28:10 PM 42.2990 -80.9280 94° East 486 559 39,000  Level FlightAware ADS-B
Sat 06:28:52 PM 42.2920 -80.8040 94° East 486 559 39,000  Level FlightAware ADS-B
Sat 06:29:38 PM 42.2840 -80.6620 94° East 487 560 39,000  Level FlightAware ADS-B
Sat 06:30:20 PM 42.2770 -80.5320 94° East 488 562 39,000  Level FlightAware ADS-B
Sat 06:30:58 PM 42.2710 -80.4180 94° East 489 563 39,000  Level FlightAware ADS-B
Sat 06:31:40 PM 42.2630 -80.2910 95° East 491 565 39,000  Level FlightAware ADS-B
Sat 06:32:25 PM 42.2550 -80.1500 94° East 493 567 39,000  Level FlightAware ADS-B
Sat 06:33:07 PM 42.2470 -80.0140 94° East 495 570 39,000  Level FlightAware ADS-B
Sat 06:33:51 PM 42.2390 -79.8910 95° East 496 571 39,000  Level FlightAware ADS-B
Sat 06:34:32 PM 42.2300 -79.7500 95° East 497 572 39,000  Level FlightAware ADS-B
Sat 06:35:14 PM 42.2210 -79.6050 95° East 498 573 39,000  Level FlightAware ADS-B
Sat 06:35:57 PM 42.2120 -79.4720 95° East 497 572 39,000  Level FlightAware ADS-B
Sat 06:36:39 PM 42.2040 -79.3510 95° East 497 572 39,000  Level FlightAware ADS-B
Sat 06:37:16 PM 42.1990 -79.2740 95° East 496 571 39,000  Level FlightAware ADS-B
Sat 06:37:59 PM 42.1830 -79.1070 97° East 501 577 39,000  Level FlightAware ADS-B
Sat 06:38:44 PM 42.1520 -78.9740 107° East 506 582 39,000  Level FlightAware ADS-B
Sat 06:39:29 PM 42.1190 -78.8440 109° East 505 581 39,000  Level FlightAware ADS-B
Sat 06:40:19 PM 42.0810 -78.6900 108° East 503 579 39,000  Level FlightAware ADS-B
Sat 06:40:59 PM 42.0500 -78.5710 109° East 503 579 39,000  Level FlightAware ADS-B
Sat 06:41:44 PM 42.0160 -78.4370 109° East 503 579 39,000  Level FlightAware ADS-B
Sat 06:42:24 PM 41.9890 -78.3310 109° East 502 578 39,000  Level FlightAware ADS-B
Sat 06:43:09 PM 41.9520 -78.1880 109° East 500 575 39,000  Level FlightAware ADS-B
Sat 06:43:54 PM 41.9200 -78.0650 109° East 499 574 39,000  Level FlightAware ADS-B
Sat 06:44:34 PM 41.8880 -77.9410 109° East 498 573 39,000  Level FlightAware ADS-B
Sat 06:45:14 PM 41.8590 -77.8280 109° East 499 574 39,000  Level FlightAware ADS-B
Sat 06:45:54 PM 41.8270 -77.7070 110° East 499 574 39,000  Level FlightAware ADS-B
Sat 06:46:40 PM 41.7950 -77.5860 109° East 499 574 39,000  Level FlightAware ADS-B
Sat 06:47:19 PM 41.7620 -77.4600 109° East 498 573 39,000  Level FlightAware ADS-B
Sat 06:48:00 PM 41.7300 -77.3430 110° East 498 573 39,000  Level FlightAware ADS-B
Sat 06:48:44 PM 41.6960 -77.2150 110° East 500 575 39,000  Level FlightAware ADS-B
Sat 06:49:13 PM 41.6705 -77.1208 110° East 499 574 39,000  Level FlightAware ADS-B
Sat 06:50:00 PM 41.6338 -76.9851 110° East 501 577 39,000  Level FlightAware ADS-B
Sat 06:50:31 PM 41.6094 -76.8954 110° East 501 577 39,000  Level FlightAware ADS-B
Sat 06:51:02 PM 41.5848 -76.8054 110° East 502 578 39,000  Level FlightAware ADS-B
Sat 06:51:37 PM 41.5569 -76.7035 110° East 503 579 39,000  Level FlightAware ADS-B
Sat 06:52:10 PM 41.5306 -76.6079 110° East 503 579 39,000  Level FlightAware ADS-B
Sat 06:52:40 PM 41.5066 -76.5208 110° East 504 580 39,000  Level FlightAware ADS-B
Sat 06:53:10 PM 41.4820 -76.4321 110° East 504 580 39,000 -484 Level FlightAware ADS-B
Sat 06:53:42 PM 41.4562 -76.3394 110° East 507 583 38,500 -1,333 Descending FlightAware ADS-B
Sat 06:54:13 PM 41.4306 -76.2478 110° East 515 593 37,600 -1,500 Descending FlightAware ADS-B
Sat 06:54:46 PM 41.4029 -76.1490 110° East 518 596 36,900 -1,500 Descending FlightAware ADS-B
Sat 06:55:17 PM 41.3769 -76.0565 111° Southeast 520 598 36,000 -2,419 Descending FlightAware ADS-B
Sat 06:55:48 PM 41.3505 -75.9626 111° Southeast 525 604 34,400 -3,046 Descending FlightAware ADS-B
Sat 06:56:22 PM 41.3220 -75.8618 111° Southeast 529 609 32,700 -3,091 Descending FlightAware ADS-B
Sat 06:56:54 PM 41.2941 -75.7639 111° Southeast 532 612 31,000 -3,281 Descending FlightAware ADS-B
Sat 06:57:26 PM 41.2648 -75.6667 112° Southeast 536 617 29,200 -3,375 Descending FlightAware ADS-B
Sat 06:57:58 PM 41.2332 -75.5701 113° Southeast 537 618 27,400 -3,484 Descending FlightAware ADS-B
Sat 06:58:28 PM 41.2030 -75.4798 114° Southeast 532 612 25,600 -3,290 Descending FlightAware ADS-B
Sat 06:59:00 PM 41.1717 -75.3864 114° Southeast 520 598 24,000 -2,381 Descending FlightAware ADS-B
Sat 06:59:31 PM 41.1418 -75.2979 114° Southeast 516 594 23,100 -984 Descending FlightAware ADS-B
Sat 07:00:01 PM 41.1127 -75.2116 114° Southeast 511 588 23,000 -98 Descending FlightAware ADS-B
Sat 07:00:32 PM 41.0826 -75.1226 114° Southeast 514 592 23,000  Level FlightAware ADS-B
Sat 07:01:04 PM 41.0513 -75.0306 114° Southeast 514 592 23,000 -185 Level FlightAware ADS-B
Sat 07:01:37 PM 41.0186 -74.9346 114° Southeast 510 587 22,800 -714 Descending FlightAware ADS-B
Sat 07:01:46 PM 41.0107 -74.9087 112° Southeast 508 585 22,500 -2,118 Descending FlightAware ADS-B
Sat 07:02:11 PM 40.9942 -74.8375 107° East 500 575 21,600 -1,636 Descending FlightAware ADS-B
Sat 07:02:41 PM 40.9819 -74.7462 100° East 492 566 21,000 -1,000 Descending FlightAware ADS-B
Sat 07:03:11 PM 40.9723 -74.6575 98° East 488 562 20,600 -885 Descending FlightAware ADS-B
Sat 07:03:42 PM 40.9628 -74.5679 98° East 485 558 20,100 -984 Descending FlightAware ADS-B
Sat 07:04:12 PM 40.9534 -74.4791 98° East 482 555 19,600 -1,000 Descending FlightAware ADS-B
Sat 07:04:42 PM 40.9438 -74.3909 98° East 482 555 19,100 -590 Descending FlightAware ADS-B
Sat 07:05:13 PM 40.9341 -74.3036 98° East 465 535 19,000 -102 Descending FlightAware ADS-B
Sat 07:05:41 PM 40.9255 -74.2294 99° East 430 495 19,000  Level FlightAware ADS-B
Sat 07:05:51 PM 40.9210 -74.2036 103° East 421 484 19,000  Level FlightAware ADS-B
Sat 07:05:58 PM 40.9162 -74.1852 109° East 413 475 19,000  Level FlightAware ADS-B
Sat 07:06:03 PM 40.9125 -74.1739 113° Southeast 408 470 19,000  Level FlightAware ADS-B
Sat 07:06:10 PM 40.9066 -74.1592 118° Southeast 403 464 19,000 -545 Level FlightAware ADS-B
Sat 07:06:14 PM 40.9024 -74.1505 123° Southeast 399 459 18,900 -750 Descending FlightAware ADS-B
Sat 07:06:18 PM 40.8983 -74.1428 125° Southeast 397 457 18,900 -545 Level FlightAware ADS-B
Sat 07:06:25 PM 40.8907 -74.1307 130° Southeast 393 452 18,800 -1,200 Descending FlightAware ADS-B
Sat 07:06:33 PM 40.8805 -74.1178 136° Southeast 389 448 18,600 -1,200 Descending FlightAware ADS-B
Sat 07:06:35 PM 40.8775 -74.1146 141° Southeast 386 444 18,600 -667 Level FlightAware ADS-B
Sat 07:06:42 PM 40.8674 -74.1052 145° Southeast 381 438 18,500 -1,000 Descending FlightAware ADS-B
Sat 07:06:47 PM 40.8593 -74.0989 150° Southeast 377 434 18,400 -1,355 Descending FlightAware ADS-B
Sat 07:07:13 PM 40.8187 -74.0721 153° Southeast 369 425 17,800 -1,400 Descending FlightAware ADS-B
Sat 07:07:17 PM 40.8128 -74.0682 153° Southeast 369 425 17,700 -1,455 Descending FlightAware ADS-B
Sat 07:07:46 PM 40.7695 -74.0404 154° Southeast 367 422 17,000 -1,500 Descending FlightAware ADS-B
Sat 07:07:49 PM 40.7638 -74.0368 154° Southeast 367 422 16,900 -1,600 Descending FlightAware ADS-B
Sat 07:08:16 PM 40.7237 -74.0113 154° Southeast 361 415 16,200 -1,368 Descending FlightAware ADS-B
Sat 07:08:46 PM 40.6785 -73.9829 155° Southeast 354 407 15,600 -1,500 Descending FlightAware ADS-B
Sat 07:09:16 PM 40.6341 -73.9551 155° Southeast 349 402 14,700 -1,905 Descending FlightAware ADS-B
Sat 07:09:49 PM 40.5870 -73.9246 154° Southeast 340 391 13,600 -2,073 Descending FlightAware ADS-B
Sat 07:10:11 PM 40.5569 -73.9038 152° Southeast 333 383 12,800 -2,276 Descending FlightAware ADS-B
Sat 07:10:18 PM 40.5481 -73.8951 143° Southeast 332 382 12,500 -2,211 Descending FlightAware ADS-B
Sat 07:10:49 PM 40.5151 -73.8536 136° Southeast 325 374 11,400 -2,156 Descending FlightAware ADS-B
Sat 07:11:22 PM 40.4800 -73.8083 136° Southeast 313 360 10,200 -2,125 Descending FlightAware ADS-B
Sat 07:11:37 PM 40.4642 -73.7882 136° Southeast 308 354 9,700 -2,229 Descending FlightAware ADS-B
Sat 07:11:57 PM 40.4444 -73.7621 135° Southeast 304 350 8,900 -2,276 Descending FlightAware ADS-B
Sat 07:12:06 PM 40.4377 -73.7482 122° Southeast 305 351 8,600 -1,714 Descending FlightAware ADS-B
Sat 07:12:11 PM 40.4354 -73.7410 113° Southeast 305 351 8,500 -1,200 Descending FlightAware ADS-B
Sat 07:12:26 PM 40.4279 -73.7137 110° East 303 349 8,200 -1,250 Descending FlightAware ADS-B
Sat 07:12:35 PM 40.4246 -73.6988 106° East 300 345 8,000 -1,200 Descending FlightAware ADS-B
Sat 07:12:41 PM 40.4236 -73.6885 97° East 296 341 7,900 -600 Descending FlightAware ADS-B
Sat 07:12:45 PM 40.4236 -73.6814 90° East 292 336 7,900 -600 Level FlightAware ADS-B
Sat 07:12:51 PM 40.4243 -73.6707 85° East 288 331 7,800 -1,200 Descending FlightAware ADS-B
Sat 07:12:55 PM 40.4250 -73.6638 82° East 287 330 7,700 -1,143 Descending FlightAware ADS-B
Sat 07:13:12 PM 40.4289 -73.6342 80° East 287 330 7,400 -1,077 Descending FlightAware ADS-B
Sat 07:13:34 PM 40.4381 -73.5996 71° East 283 326 7,000 -960 Descending FlightAware ADS-B
Sat 07:13:37 PM 40.4413 -73.5943 52° Northeast 281 323 7,000  Level FlightAware ADS-B
Sat 07:13:50 PM 40.4527 -73.5800 44° Northeast 280 322 7,000  Level FlightAware ADS-B
Sat 07:14:04 PM 40.4677 -73.5652 37° Northeast 278 320 7,000  Level FlightAware ADS-B
Sat 07:14:21 PM 40.4863 -73.5502 32° Northeast 277 319 7,000  Level FlightAware ADS-B
Sat 07:14:38 PM 40.5046 -73.5361 30° Northeast 275 316 7,000 -194 Level FlightAware ADS-B
Sat 07:14:52 PM 40.5200 -73.5243 30° Northeast 274 315 6,900 -857 Descending FlightAware ADS-B
Sat 07:15:13 PM 40.5431 -73.5067 30° Northeast 274 315 6,500 -1,222 Descending FlightAware ADS-B
Sat 07:15:46 PM 40.5790 -73.4790 30° Northeast 273 314 5,800 -1,258 Descending FlightAware ADS-B
Sat 07:16:15 PM 40.6100 -73.4550 30° Northeast 271 312 5,200 -842 Descending FlightAware ADS-B
Sat 07:16:43 PM 40.6400 -73.4330 29° Northeast 257 296 5,000 -240 Descending FlightAware ADS-B
Sat 07:17:05 PM 40.6620 -73.4160 30° Northeast 237 273 5,000  Level FlightAware ADS-B
Sat 07:17:38 PM 40.6920 -73.3930 30° Northeast 226 260 5,000  Level FlightAware ADS-B
Sat 07:18:07 PM 40.7190 -73.3730 29° Northeast 229 264 5,000  Level FlightAware ADS-B
Sat 07:18:19 PM 40.7300 -73.3680 19° North 220 253 5,000  Level FlightAware ADS-B
Sat 07:18:47 PM 40.7550 -73.3820 337° Northwest 213 245 5,000 -316 Level FlightAware ADS-B
Sat 07:19:16 PM 40.7760 -73.4070 318° Northwest 210 242 4,700 -792 Descending FlightAware ADS-B
Sat 07:19:40 PM 40.7930 -73.4280 317° Northwest 209 241 4,300 -1,080 Descending FlightAware ADS-B
Sat 07:20:06 PM 40.8120 -73.4500 319° Northwest 209 241 3,800 -1,099 Descending FlightAware ADS-B
Sat 07:20:51 PM 40.8190 -73.5040 280° West 209 241 3,000 -623 Descending FlightAware ADS-B
Sat 07:21:23 PM 40.8150 -73.5470 263° West 215 247 3,000  Level FlightAware ADS-B
Sat 07:21:35 PM 40.8140 -73.5630 265° West 212 244 3,000 -214 Level FlightAware ADS-B
Sat 07:21:51 PM 40.8090 -73.5820 251° West 208 239 2,900 -643 Descending FlightAware ADS-B
Sat 07:22:03 PM 40.8040 -73.5960 245° Southwest 207 238 2,700 -900 Descending FlightAware ADS-B
Sat 07:22:31 PM 40.7920 -73.6280 244° Southwest 202 232 2,300 -732 Descending FlightAware ADS-B
Sat 07:22:44 PM 40.7860 -73.6400 237° Southwest 200 230 2,200 -462 Descending FlightAware ADS-B
Sat 07:23:10 PM 40.7670 -73.6600 219° Southwest 189 217 2,000 -203 Descending FlightAware ADS-B
Sat 07:23:43 PM 40.7430 -73.6790 211° Southwest 186 214 2,000 -295 Level FlightAware ADS-B
Sat 07:24:11 PM 40.7220 -73.6950 210° Southwest 191 220 1,700 -764 Descending FlightAware ADS-B
Sat 07:24:38 PM 40.7020 -73.7100 210° Southwest 174 200 1,300 -857 Descending FlightAware ADS-B
Sat 07:25:07 PM 40.6840 -73.7250 212° Southwest 146 168 900 -750 Descending FlightAware ADS-B
Sat 07:25:34 PM 40.6700 -73.7360 211° Southwest 129 148 600 -655 Descending FlightAware ADS-B
Sat 07:26:02 PM 40.6550 -73.7480 211° Southwest 125 144 300 -643 Descending FlightAware ADS-B
Sat 07:26:30 PM 40.6410 -73.7580 208° Southwest 125 144 -643 Descending FlightAware ADS-B
Sat 07:26:59 PM 40.6310 -73.7660 211° Southwest 40 46  Level FlightAware ADS-B
Sat 07:27:11 PM 40.6300 -73.7680 237° Southwest 30 35  Level FlightAware ADS-B
Sat 07:27:22 PM 40.6290 -73.7690 217° Southwest 21 24  Level FlightAware ADS-B
Sat 07:27:54 PM 40.6310 -73.7730 303° West 18 21  Level FlightAware ADS-B
Sat 07:28:23 PM 40.6320 -73.7750 303° West 21 24  Level FlightAware ADS-B

Login

Don't have an account? Register now (free) for customized features, flight alerts, and more!